DTKA/TBJ METAR and TAF weather

Enter ICAO airport designator
Station Type Date Time Source
DTKA METAR 2018/12/11 01:00 UTC NOAA

DTKA 110100Z AUTO 30016KT /// 15/07 Q1023


Station Type Date Time Source
DTKA Decoded METAR 2018/12/11 01:00 UTC NOAA

Tabarka, Tunisia (DTKA) 36-57N 008-45E 21M
Dec 10, 2018 - 08:00 PM EST / 2018.12.11 0100 UTC
Wind: from the WNW (300 degrees) at 18 MPH (16 KT):0
Temperature: 59 F (15 C)
Dew Point: 44 F (7 C)
Relative Humidity: 58%
Pressure (altimeter): 30.21 in. Hg (1023 hPa)
ob: DTKA 110100Z AUTO 30016KT /// 15/07 Q1023
cycle: 1

Station Type Date Time Source
DTKA TAF 2018/07/22 13:33 UTC NOAA

TAF TAF DTKA 221200Z 2213/2322 23005KT 9999 FEW020 PROB30
TEMPO 2217/2222 4000 -TSRA FEW026CB


Example: see airport list